Huvudsida
METAR-TAF:

METAR-TAF

Flygplatser :

Yanbu, Saudiarabien

latitud: 24-09N, longitud: 038-04E, höjd: 8 m

Aktuellt väderrapport

Denna rapport gjordes för 17 minuter sedan, klockan 20:00 UTC
Stilla vind
Temperatur 27°C
Fuktighet 70%
Tryck 1007 hPa
Sikt 10 km eller mer
Få moln på en höjd av 4000 ft

METAR: OEYN 112000Z 00000KT 9999 FEW040 27/21 Q1007 NOSIG

Tid: 23:17 (20:17 UTC)

Väderprognos

Denna rapport gjordes för 9 timmar och 17 minuter sedan, klockan 11:00 UTC
Prognos gäller från 11 kl. 12 UTC till 12 kl. 18 UTC
Vind 12 kt från väst
Sikt 10 km eller mer
Få moln på en höjd av 4000 ft
Spridda moln på en höjd av 10000 ft
Temporärt
från 11 kl. 12 UTC till 11 kl. 20 UTC
Sikt: 6000 m
Få moln på en höjd av 3500 ft, Cumulonimbus.
Spridda moln på en höjd av 4000 ft
åska, regn
Blir
från 11 kl. 18 UTC till 11 kl. 20 UTC
Vind 3 kt varierande vindriktning

TAF: OEYN 111100Z 1112/1218 26012KT 9999 FEW040 SCT100 TEMPO 1112/1120 6000 TSRA FEW035CB SCT040 BECMG 1118/1120 VRB03KT

Aktuella väderrapporter och prognoser från 4000 flygplatser (METAR- och TAF-rapporter).

De tillgängliga stationerna syns som gula och röda prickar på kartan.

För musen över prickarna för att se namnen på stationerna.

Klicka sedan för att få väderrapporter och prognoser.

För att ändra kartan: Klicka på de gröna knapparna med ett svart kors på för att zooma in; den gröna knappen med ett streck på för att zooma ut; eller på de gröna pilarna för angränsande kartor.


METAR-TAF: